sensor_id;sensor_type;location;lat;lon;timestamp;temperature;humidity
25918;DHT22;13899;51.174;4.456;2022-08-01T00:03:36;21.70;99.90
25918;DHT22;13899;51.174;4.456;2022-08-01T00:06:05;21.80;99.90
25918;DHT22;13899;51.174;4.456;2022-08-01T00:08:49;21.90;99.90
25918;DHT22;13899;51.174;4.456;2022-08-01T00:11:15;22.00;99.90
25918;DHT22;13899;51.174;4.456;2022-08-01T00:13:41;22.00;99.90
25918;DHT22;13899;51.174;4.456;2022-08-01T00:16:07;21.80;99.90
25918;DHT22;13899;51.174;4.456;2022-08-01T00:19:06;21.90;99.90
25918;DHT22;13899;51.174;4.456;2022-08-01T00:21:39;22.10;99.90
25918;DHT22;13899;51.174;4.456;2022-08-01T00:24:08;22.10;99.90
25918;DHT22;13899;51.174;4.456;2022-08-01T00:26:34;22.10;99.90
25918;DHT22;13899;51.174;4.456;2022-08-01T00:28:59;22.20;99.90
25918;DHT22;13899;51.174;4.456;2022-08-01T00:31:25;22.10;99.90
25918;DHT22;13899;51.174;4.456;2022-08-01T00:33:51;22.00;99.90
25918;DHT22;13899;51.174;4.456;2022-08-01T00:36:16;21.70;99.90
25918;DHT22;13899;51.174;4.456;2022-08-01T00:41:55;21.60;99.90
25918;DHT22;13899;51.174;4.456;2022-08-01T00:44:21;21.60;99.90
25918;DHT22;13899;51.174;4.456;2022-08-01T00:46:49;21.60;99.90
25918;DHT22;13899;51.174;4.456;2022-08-01T00:49:17;21.80;99.90
25918;DHT22;13899;51.174;4.456;2022-08-01T00:52:34;21.90;99.90
25918;DHT22;13899;51.174;4.456;2022-08-01T00:55:00;21.90;99.90
25918;DHT22;13899;51.174;4.456;2022-08-01T00:57:26;21.80;99.90
25918;DHT22;13899;51.174;4.456;2022-08-01T01:00:01;22.00;99.90
25918;DHT22;13899;51.174;4.456;2022-08-01T01:02:30;22.10;99.90
25918;DHT22;13899;51.174;4.456;2022-08-01T01:04:55;22.20;99.90
25918;DHT22;13899;51.174;4.456;2022-08-01T01:07:39;22.10;99.90
25918;DHT22;13899;51.174;4.456;2022-08-01T01:10:25;22.10;99.90
25918;DHT22;13899;51.174;4.456;2022-08-01T01:13:35;22.10;99.90
25918;DHT22;13899;51.174;4.456;2022-08-01T01:16:08;22.10;99.90
25918;DHT22;13899;51.174;4.456;2022-08-01T01:26:54;21.80;99.90
25918;DHT22;13899;51.174;4.456;2022-08-01T01:29:40;21.80;99.90
25918;DHT22;13899;51.174;4.456;2022-08-01T01:32:41;21.50;99.90
25918;DHT22;13899;51.174;4.456;2022-08-01T01:35:46;21.50;99.90
25918;DHT22;13899;51.174;4.456;2022-08-01T01:38:26;21.60;99.90
25918;DHT22;13899;51.174;4.456;2022-08-01T01:40:54;21.50;99.90
25918;DHT22;13899;51.174;4.456;2022-08-01T01:43:27;21.40;99.90
25918;DHT22;13899;51.174;4.456;2022-08-01T01:46:06;21.30;99.90
25918;DHT22;13899;51.174;4.456;2022-08-01T01:48:36;21.10;99.90
25918;DHT22;13899;51.174;4.456;2022-08-01T01:51:07;21.40;99.90
25918;DHT22;13899;51.174;4.456;2022-08-01T01:53:54;21.50;99.90
25918;DHT22;13899;51.174;4.456;2022-08-01T01:56:22;21.50;99.90
25918;DHT22;13899;51.174;4.456;2022-08-01T01:58:52;21.50;99.90
25918;DHT22;13899;51.174;4.456;2022-08-01T02:01:41;21.50;99.90
25918;DHT22;13899;51.174;4.456;2022-08-01T02:04:11;21.40;99.90
25918;DHT22;13899;51.174;4.456;2022-08-01T02:07:00;21.40;99.90
25918;DHT22;13899;51.174;4.456;2022-08-01T02:09:49;21.40;99.90
25918;DHT22;13899;51.174;4.456;2022-08-01T02:12:33;21.50;99.90
25918;DHT22;13899;51.174;4.456;2022-08-01T02:15:00;21.60;99.90
25918;DHT22;13899;51.174;4.456;2022-08-01T02:17:30;21.50;99.90
25918;DHT22;13899;51.174;4.456;2022-08-01T02:19:57;21.60;99.90
25918;DHT22;13899;51.174;4.456;2022-08-01T02:22:44;21.50;99.90
25918;DHT22;13899;51.174;4.456;2022-08-01T02:25:50;21.50;99.90
25918;DHT22;13899;51.174;4.456;2022-08-01T02:30:52;21.60;99.90
25918;DHT22;13899;51.174;4.456;2022-08-01T02:33:21;21.50;99.90
25918;DHT22;13899;51.174;4.456;2022-08-01T02:35:50;21.40;99.90
25918;DHT22;13899;51.174;4.456;2022-08-01T02:38:18;21.60;99.90
25918;DHT22;13899;51.174;4.456;2022-08-01T02:40:47;21.60;99.90
25918;DHT22;13899;51.174;4.456;2022-08-01T02:43:20;21.50;99.90
25918;DHT22;13899;51.174;4.456;2022-08-01T02:45:51;21.40;99.90
25918;DHT22;13899;51.174;4.456;2022-08-01T02:48:19;21.40;99.90
25918;DHT22;13899;51.174;4.456;2022-08-01T02:50:47;21.50;99.90
25918;DHT22;13899;51.174;4.456;2022-08-01T02:53:18;21.40;99.90
25918;DHT22;13899;51.174;4.456;2022-08-01T02:55:46;21.30;99.90
25918;DHT22;13899;51.174;4.456;2022-08-01T02:58:15;21.30;99.90
25918;DHT22;13899;51.174;4.456;2022-08-01T03:00:43;21.40;99.90
25918;DHT22;13899;51.174;4.456;2022-08-01T03:03:11;21.20;99.90
25918;DHT22;13899;51.174;4.456;2022-08-01T03:05:39;21.30;99.90
25918;DHT22;13899;51.174;4.456;2022-08-01T03:08:06;21.40;99.90
25918;DHT22;13899;51.174;4.456;2022-08-01T03:10:33;21.40;99.90
25918;DHT22;13899;51.174;4.456;2022-08-01T03:13:01;21.40;99.90
25918;DHT22;13899;51.174;4.456;2022-08-01T03:15:31;21.40;99.90
25918;DHT22;13899;51.174;4.456;2022-08-01T03:17:59;21.50;99.90
25918;DHT22;13899;51.174;4.456;2022-08-01T03:20:27;21.50;99.90
25918;DHT22;13899;51.174;4.456;2022-08-01T03:22:56;21.50;99.90
25918;DHT22;13899;51.174;4.456;2022-08-01T03:25:24;21.50;99.90
25918;DHT22;13899;51.174;4.456;2022-08-01T03:27:55;21.50;99.90
25918;DHT22;13899;51.174;4.456;2022-08-01T03:30:23;21.50;99.90
25918;DHT22;13899;51.174;4.456;2022-08-01T03:32:50;21.50;99.90
25918;DHT22;13899;51.174;4.456;2022-08-01T03:35:16;21.40;99.90
25918;DHT22;13899;51.174;4.456;2022-08-01T03:37:45;21.40;99.90
25918;DHT22;13899;51.174;4.456;2022-08-01T03:40:20;21.40;99.90
25918;DHT22;13899;51.174;4.456;2022-08-01T03:42:48;21.30;99.90
25918;DHT22;13899;51.174;4.456;2022-08-01T03:45:23;21.50;99.90
25918;DHT22;13899;51.174;4.456;2022-08-01T03:47:54;21.50;99.90
25918;DHT22;13899;51.174;4.456;2022-08-01T03:50:22;21.60;99.90
25918;DHT22;13899;51.174;4.456;2022-08-01T03:52:51;21.60;99.90
25918;DHT22;13899;51.174;4.456;2022-08-01T03:55:18;21.40;99.90
25918;DHT22;13899;51.174;4.456;2022-08-01T03:57:47;21.40;99.90
25918;DHT22;13899;51.174;4.456;2022-08-01T04:00:13;21.40;99.90
25918;DHT22;13899;51.174;4.456;2022-08-01T04:02:47;21.50;99.90
25918;DHT22;13899;51.174;4.456;2022-08-01T04:05:14;21.50;99.90
25918;DHT22;13899;51.174;4.456;2022-08-01T04:07:45;21.60;99.90
25918;DHT22;13899;51.174;4.456;2022-08-01T04:10:12;21.60;99.90
25918;DHT22;13899;51.174;4.456;2022-08-01T04:12:37;21.60;99.90
25918;DHT22;13899;51.174;4.456;2022-08-01T04:15:04;21.70;99.90
25918;DHT22;13899;51.174;4.456;2022-08-01T04:17:31;21.60;99.90
25918;DHT22;13899;51.174;4.456;2022-08-01T04:19:57;21.50;99.90
25918;DHT22;13899;51.174;4.456;2022-08-01T04:22:23;21.50;99.90
25918;DHT22;13899;51.174;4.456;2022-08-01T04:24:51;21.30;99.90
25918;DHT22;13899;51.174;4.456;2022-08-01T04:27:32;21.40;99.90
25918;DHT22;13899;51.174;4.456;2022-08-01T04:30:02;21.50;99.90
25918;DHT22;13899;51.174;4.456;2022-08-01T04:32:31;21.40;99.90
25918;DHT22;13899;51.174;4.456;2022-08-01T04:34:59;21.50;99.90
25918;DHT22;13899;51.174;4.456;2022-08-01T04:37:27;21.30;99.90
25918;DHT22;13899;51.174;4.456;2022-08-01T04:39:54;21.40;99.90
25918;DHT22;13899;51.174;4.456;2022-08-01T04:42:21;21.50;99.90
25918;DHT22;13899;51.174;4.456;2022-08-01T04:44:48;21.50;99.90
25918;DHT22;13899;51.174;4.456;2022-08-01T04:47:14;21.50;99.90
25918;DHT22;13899;51.174;4.456;2022-08-01T04:49:40;21.40;99.90
25918;DHT22;13899;51.174;4.456;2022-08-01T04:52:06;21.70;99.90
25918;DHT22;13899;51.174;4.456;2022-08-01T04:54:34;21.50;99.90
25918;DHT22;13899;51.174;4.456;2022-08-01T04:57:04;21.50;99.90
25918;DHT22;13899;51.174;4.456;2022-08-01T04:59:31;21.50;99.90
25918;DHT22;13899;51.174;4.456;2022-08-01T05:02:11;21.60;99.90
25918;DHT22;13899;51.174;4.456;2022-08-01T05:04:37;21.80;99.90
25918;DHT22;13899;51.174;4.456;2022-08-01T05:07:04;21.80;99.90
25918;DHT22;13899;51.174;4.456;2022-08-01T05:09:30;21.70;99.90
25918;DHT22;13899;51.174;4.456;2022-08-01T05:11:57;21.90;99.90
25918;DHT22;13899;51.174;4.456;2022-08-01T05:14:25;21.90;99.90
25918;DHT22;13899;51.174;4.456;2022-08-01T05:16:51;21.90;99.90
25918;DHT22;13899;51.174;4.456;2022-08-01T05:19:17;22.00;99.90
25918;DHT22;13899;51.174;4.456;2022-08-01T05:21:42;22.00;99.90
25918;DHT22;13899;51.174;4.456;2022-08-01T05:24:08;22.00;99.90
25918;DHT22;13899;51.174;4.456;2022-08-01T05:26:34;21.90;99.90
25918;DHT22;13899;51.174;4.456;2022-08-01T05:29:00;21.90;99.90
25918;DHT22;13899;51.174;4.456;2022-08-01T05:31:25;21.70;99.90
25918;DHT22;13899;51.174;4.456;2022-08-01T05:33:51;21.50;99.90
25918;DHT22;13899;51.174;4.456;2022-08-01T05:36:17;21.50;99.90
25918;DHT22;13899;51.174;4.456;2022-08-01T05:38:43;21.80;99.90
25918;DHT22;13899;51.174;4.456;2022-08-01T05:41:10;21.90;99.90
25918;DHT22;13899;51.174;4.456;2022-08-01T05:43:35;22.10;99.90
25918;DHT22;13899;51.174;4.456;2022-08-01T05:46:01;22.00;99.90
25918;DHT22;13899;51.174;4.456;2022-08-01T05:48:27;21.80;99.90
25918;DHT22;13899;51.174;4.456;2022-08-01T05:50:53;21.90;99.90
25918;DHT22;13899;51.174;4.456;2022-08-01T05:53:19;21.80;99.90
25918;DHT22;13899;51.174;4.456;2022-08-01T05:55:45;22.10;99.90
25918;DHT22;13899;51.174;4.456;2022-08-01T05:58:10;22.10;99.90
25918;DHT22;13899;51.174;4.456;2022-08-01T06:00:36;22.30;99.90
25918;DHT22;13899;51.174;4.456;2022-08-01T06:03:03;22.40;99.90
25918;DHT22;13899;51.174;4.456;2022-08-01T06:05:29;22.50;99.90
25918;DHT22;13899;51.174;4.456;2022-08-01T06:07:54;22.50;99.90
25918;DHT22;13899;51.174;4.456;2022-08-01T06:10:20;22.70;99.90
25918;DHT22;13899;51.174;4.456;2022-08-01T06:12:46;22.40;99.90
25918;DHT22;13899;51.174;4.456;2022-08-01T06:15:11;22.50;99.90
25918;DHT22;13899;51.174;4.456;2022-08-01T06:17:37;22.50;99.90
25918;DHT22;13899;51.174;4.456;2022-08-01T06:20:06;22.70;99.90
25918;DHT22;13899;51.174;4.456;2022-08-01T06:22:32;22.80;99.90
25918;DHT22;13899;51.174;4.456;2022-08-01T06:24:58;22.80;99.90
25918;DHT22;13899;51.174;4.456;2022-08-01T06:27:23;22.70;99.90
25918;DHT22;13899;51.174;4.456;2022-08-01T06:29:52;22.50;99.90
25918;DHT22;13899;51.174;4.456;2022-08-01T06:32:19;22.60;99.90
25918;DHT22;13899;51.174;4.456;2022-08-01T06:34:45;22.80;99.90
25918;DHT22;13899;51.174;4.456;2022-08-01T06:37:10;23.10;99.90
25918;DHT22;13899;51.174;4.456;2022-08-01T06:39:39;23.20;99.90
25918;DHT22;13899;51.174;4.456;2022-08-01T06:42:04;23.10;99.90
25918;DHT22;13899;51.174;4.456;2022-08-01T06:44:30;23.10;99.90
25918;DHT22;13899;51.174;4.456;2022-08-01T06:46:56;23.20;99.90
25918;DHT22;13899;51.174;4.456;2022-08-01T06:49:24;23.20;99.90
25918;DHT22;13899;51.174;4.456;2022-08-01T06:51:49;23.30;99.90
25918;DHT22;13899;51.174;4.456;2022-08-01T06:54:15;23.30;99.90
25918;DHT22;13899;51.174;4.456;2022-08-01T06:56:41;23.20;99.90
25918;DHT22;13899;51.174;4.456;2022-08-01T06:59:07;23.00;99.90
25918;DHT22;13899;51.174;4.456;2022-08-01T07:01:32;23.10;99.90
25918;DHT22;13899;51.174;4.456;2022-08-01T07:03:59;23.20;99.90
25918;DHT22;13899;51.174;4.456;2022-08-01T07:06:25;23.40;99.90
25918;DHT22;13899;51.174;4.456;2022-08-01T07:08:52;23.60;99.90
25918;DHT22;13899;51.174;4.456;2022-08-01T07:11:18;23.70;99.90
25918;DHT22;13899;51.174;4.456;2022-08-01T07:13:44;23.80;99.90
25918;DHT22;13899;51.174;4.456;2022-08-01T07:16:11;23.60;99.90
25918;DHT22;13899;51.174;4.456;2022-08-01T07:18:37;23.60;99.90
25918;DHT22;13899;51.174;4.456;2022-08-01T07:21:02;23.50;99.90
25918;DHT22;13899;51.174;4.456;2022-08-01T07:23:28;23.70;99.90
25918;DHT22;13899;51.174;4.456;2022-08-01T07:25:54;23.70;99.90
25918;DHT22;13899;51.174;4.456;2022-08-01T07:28:19;23.60;99.90
25918;DHT22;13899;51.174;4.456;2022-08-01T07:30:45;23.70;99.90
25918;DHT22;13899;51.174;4.456;2022-08-01T07:33:11;23.90;99.90
25918;DHT22;13899;51.174;4.456;2022-08-01T07:35:37;24.10;99.90
25918;DHT22;13899;51.174;4.456;2022-08-01T07:38:05;24.30;99.90
25918;DHT22;13899;51.174;4.456;2022-08-01T07:40:32;24.20;99.90
25918;DHT22;13899;51.174;4.456;2022-08-01T07:42:58;24.30;99.90
25918;DHT22;13899;51.174;4.456;2022-08-01T07:45:23;24.10;99.90
25918;DHT22;13899;51.174;4.456;2022-08-01T07:47:49;24.00;99.90
25918;DHT22;13899;51.174;4.456;2022-08-01T07:50:15;24.20;99.90
25918;DHT22;13899;51.174;4.456;2022-08-01T07:52:41;24.40;99.90
25918;DHT22;13899;51.174;4.456;2022-08-01T07:55:07;24.20;99.90
25918;DHT22;13899;51.174;4.456;2022-08-01T07:57:33;24.10;99.90
25918;DHT22;13899;51.174;4.456;2022-08-01T08:00:00;24.20;99.90
25918;DHT22;13899;51.174;4.456;2022-08-01T08:02:26;24.30;99.90
25918;DHT22;13899;51.174;4.456;2022-08-01T08:04:51;24.30;99.90
25918;DHT22;13899;51.174;4.456;2022-08-01T08:07:17;24.40;99.90
25918;DHT22;13899;51.174;4.456;2022-08-01T08:09:43;24.60;99.90
25918;DHT22;13899;51.174;4.456;2022-08-01T08:12:09;24.40;99.90
25918;DHT22;13899;51.174;4.456;2022-08-01T08:14:34;24.50;99.90
25918;DHT22;13899;51.174;4.456;2022-08-01T08:17:00;24.70;99.90
25918;DHT22;13899;51.174;4.456;2022-08-01T08:19:30;24.50;99.90
25918;DHT22;13899;51.174;4.456;2022-08-01T08:21:59;24.30;99.90
25918;DHT22;13899;51.174;4.456;2022-08-01T08:24:25;24.50;99.90
25918;DHT22;13899;51.174;4.456;2022-08-01T08:26:57;24.50;99.90
25918;DHT22;13899;51.174;4.456;2022-08-01T08:29:25;24.50;99.90
25918;DHT22;13899;51.174;4.456;2022-08-01T08:31:55;24.80;99.90
25918;DHT22;13899;51.174;4.456;2022-08-01T08:34:23;24.90;99.90
25918;DHT22;13899;51.174;4.456;2022-08-01T08:36:51;24.90;99.90
25918;DHT22;13899;51.174;4.456;2022-08-01T08:39:17;24.90;99.90
25918;DHT22;13899;51.174;4.456;2022-08-01T08:41:42;24.80;99.90
25918;DHT22;13899;51.174;4.456;2022-08-01T08:44:10;24.90;99.90
25918;DHT22;13899;51.174;4.456;2022-08-01T08:46:45;25.30;99.90
25918;DHT22;13899;51.174;4.456;2022-08-01T08:49:14;25.40;99.90
25918;DHT22;13899;51.174;4.456;2022-08-01T08:51:42;25.50;99.90
25918;DHT22;13899;51.174;4.456;2022-08-01T08:54:11;25.70;99.90
25918;DHT22;13899;51.174;4.456;2022-08-01T08:56:38;25.60;99.90
25918;DHT22;13899;51.174;4.456;2022-08-01T08:59:05;25.70;99.90
25918;DHT22;13899;51.174;4.456;2022-08-01T09:01:32;25.80;99.90
25918;DHT22;13899;51.174;4.456;2022-08-01T09:03:58;25.90;99.90
25918;DHT22;13899;51.174;4.456;2022-08-01T09:06:25;25.90;99.90
25918;DHT22;13899;51.174;4.456;2022-08-01T09:08:52;26.00;99.90
25918;DHT22;13899;51.174;4.456;2022-08-01T09:11:18;26.10;99.90
25918;DHT22;13899;51.174;4.456;2022-08-01T09:14:02;25.90;99.90
25918;DHT22;13899;51.174;4.456;2022-08-01T09:16:33;25.50;99.90
25918;DHT22;13899;51.174;4.456;2022-08-01T09:19:12;25.40;99.90
25918;DHT22;13899;51.174;4.456;2022-08-01T09:21:56;25.60;99.90
25918;DHT22;13899;51.174;4.456;2022-08-01T09:24:23;25.60;99.90
25918;DHT22;13899;51.174;4.456;2022-08-01T09:26:49;25.80;99.90
25918;DHT22;13899;51.174;4.456;2022-08-01T09:29:25;26.00;99.90
25918;DHT22;13899;51.174;4.456;2022-08-01T09:31:51;26.20;99.90
25918;DHT22;13899;51.174;4.456;2022-08-01T09:34:27;26.10;99.90
25918;DHT22;13899;51.174;4.456;2022-08-01T09:37:01;26.30;99.90
25918;DHT22;13899;51.174;4.456;2022-08-01T09:39:35;26.40;99.90
25918;DHT22;13899;51.174;4.456;2022-08-01T09:42:41;26.40;99.90
25918;DHT22;13899;51.174;4.456;2022-08-01T09:45:34;26.30;99.90
25918;DHT22;13899;51.174;4.456;2022-08-01T09:48:09;26.30;99.90
25918;DHT22;13899;51.174;4.456;2022-08-01T09:50:42;26.60;99.90
25918;DHT22;13899;51.174;4.456;2022-08-01T09:53:10;27.30;99.90
25918;DHT22;13899;51.174;4.456;2022-08-01T09:55:37;28.10;99.90
25918;DHT22;13899;51.174;4.456;2022-08-01T09:58:04;28.70;99.90
25918;DHT22;13899;51.174;4.456;2022-08-01T10:00:31;28.60;99.90
25918;DHT22;13899;51.174;4.456;2022-08-01T10:02:59;28.90;99.90
25918;DHT22;13899;51.174;4.456;2022-08-01T10:05:35;28.70;99.90
25918;DHT22;13899;51.174;4.456;2022-08-01T10:08:04;28.80;99.90
25918;DHT22;13899;51.174;4.456;2022-08-01T10:10:31;29.00;99.90
25918;DHT22;13899;51.174;4.456;2022-08-01T10:12:58;29.70;99.90
25918;DHT22;13899;51.174;4.456;2022-08-01T10:15:28;29.50;99.90
25918;DHT22;13899;51.174;4.456;2022-08-01T10:18:01;28.30;99.90
25918;DHT22;13899;51.174;4.456;2022-08-01T10:20:31;29.00;99.90
25918;DHT22;13899;51.174;4.456;2022-08-01T10:23:02;29.90;99.90
25918;DHT22;13899;51.174;4.456;2022-08-01T10:25:31;30.90;99.90
25918;DHT22;13899;51.174;4.456;2022-08-01T10:28:02;31.50;99.90
25918;DHT22;13899;51.174;4.456;2022-08-01T10:30:30;31.80;99.90
25918;DHT22;13899;51.174;4.456;2022-08-01T10:32:56;31.60;99.90
25918;DHT22;13899;51.174;4.456;2022-08-01T10:35:22;31.30;99.90
25918;DHT22;13899;51.174;4.456;2022-08-01T10:37:52;31.10;99.90
25918;DHT22;13899;51.174;4.456;2022-08-01T10:40:24;30.40;99.90
25918;DHT22;13899;51.174;4.456;2022-08-01T10:42:51;30.20;99.90
25918;DHT22;13899;51.174;4.456;2022-08-01T10:45:19;30.10;99.90
25918;DHT22;13899;51.174;4.456;2022-08-01T10:47:51;30.30;99.90
25918;DHT22;13899;51.174;4.456;2022-08-01T10:53:15;31.70;99.90
25918;DHT22;13899;51.174;4.456;2022-08-01T10:56:02;31.60;99.20
25918;DHT22;13899;51.174;4.456;2022-08-01T10:58:36;31.70;98.90
25918;DHT22;13899;51.174;4.456;2022-08-01T11:01:32;31.60;98.40
25918;DHT22;13899;51.174;4.456;2022-08-01T11:09:21;31.80;98.00
25918;DHT22;13899;51.174;4.456;2022-08-01T11:12:12;32.40;97.60
25918;DHT22;13899;51.174;4.456;2022-08-01T11:17:35;31.60;95.80
25918;DHT22;13899;51.174;4.456;2022-08-01T11:20:11;31.80;96.40
25918;DHT22;13899;51.174;4.456;2022-08-01T11:28:24;30.70;96.60
25918;DHT22;13899;51.174;4.456;2022-08-01T11:36:17;30.70;97.10
25918;DHT22;13899;51.174;4.456;2022-08-01T11:41:22;31.10;97.10
25918;DHT22;13899;51.174;4.456;2022-08-01T11:44:19;31.50;96.70
25918;DHT22;13899;51.174;4.456;2022-08-01T11:47:03;31.80;96.70
25918;DHT22;13899;51.174;4.456;2022-08-01T11:49:33;32.50;95.60
25918;DHT22;13899;51.174;4.456;2022-08-01T11:52:15;32.80;94.10
25918;DHT22;13899;51.174;4.456;2022-08-01T11:54:50;32.70;94.10
25918;DHT22;13899;51.174;4.456;2022-08-01T11:57:20;32.20;93.10
25918;DHT22;13899;51.174;4.456;2022-08-01T11:59:55;31.80;93.90
25918;DHT22;13899;51.174;4.456;2022-08-01T12:02:27;31.90;94.00
25918;DHT22;13899;51.174;4.456;2022-08-01T12:04:58;32.10;93.50
25918;DHT22;13899;51.174;4.456;2022-08-01T12:07:38;32.30;93.20
25918;DHT22;13899;51.174;4.456;2022-08-01T12:10:10;32.60;93.00
25918;DHT22;13899;51.174;4.456;2022-08-01T12:12:50;32.80;92.50
25918;DHT22;13899;51.174;4.456;2022-08-01T12:15:18;33.10;92.50
25918;DHT22;13899;51.174;4.456;2022-08-01T12:17:47;32.70;91.00
25918;DHT22;13899;51.174;4.456;2022-08-01T12:20:19;32.10;91.90
25918;DHT22;13899;51.174;4.456;2022-08-01T12:22:45;32.20;92.50
25918;DHT22;13899;51.174;4.456;2022-08-01T12:25:13;32.20;91.50
25918;DHT22;13899;51.174;4.456;2022-08-01T12:27:41;31.70;91.80
25918;DHT22;13899;51.174;4.456;2022-08-01T12:30:10;31.20;92.70
25918;DHT22;13899;51.174;4.456;2022-08-01T12:32:38;31.50;91.60
25918;DHT22;13899;51.174;4.456;2022-08-01T12:35:13;31.40;91.20
25918;DHT22;13899;51.174;4.456;2022-08-01T12:37:45;31.40;91.10
25918;DHT22;13899;51.174;4.456;2022-08-01T12:40:21;31.20;92.00
25918;DHT22;13899;51.174;4.456;2022-08-01T12:42:50;31.00;91.30
25918;DHT22;13899;51.174;4.456;2022-08-01T12:45:21;30.80;91.30
25918;DHT22;13899;51.174;4.456;2022-08-01T12:47:49;31.00;92.00
25918;DHT22;13899;51.174;4.456;2022-08-01T12:50:18;31.20;90.80
25918;DHT22;13899;51.174;4.456;2022-08-01T12:52:44;31.20;90.60
25918;DHT22;13899;51.174;4.456;2022-08-01T12:55:15;31.40;91.10
25918;DHT22;13899;51.174;4.456;2022-08-01T12:57:48;31.40;91.00
25918;DHT22;13899;51.174;4.456;2022-08-01T13:00:24;31.40;91.50
25918;DHT22;13899;51.174;4.456;2022-08-01T13:03:12;31.60;91.80
25918;DHT22;13899;51.174;4.456;2022-08-01T13:05:59;31.20;91.40
25918;DHT22;13899;51.174;4.456;2022-08-01T13:08:32;31.10;90.90
25918;DHT22;13899;51.174;4.456;2022-08-01T13:11:03;30.90;91.30
25918;DHT22;13899;51.174;4.456;2022-08-01T13:13:45;30.90;92.10
25918;DHT22;13899;51.174;4.456;2022-08-01T13:16:18;31.20;91.20
25918;DHT22;13899;51.174;4.456;2022-08-01T13:18:49;30.90;90.20
25918;DHT22;13899;51.174;4.456;2022-08-01T13:21:22;31.00;90.50
25918;DHT22;13899;51.174;4.456;2022-08-01T13:24:09;30.90;89.70
25918;DHT22;13899;51.174;4.456;2022-08-01T13:26:56;30.80;90.50
25918;DHT22;13899;51.174;4.456;2022-08-01T13:29:39;31.20;90.20
25918;DHT22;13899;51.174;4.456;2022-08-01T13:32:15;31.20;88.80
25918;DHT22;13899;51.174;4.456;2022-08-01T13:34:41;31.00;87.60
25918;DHT22;13899;51.174;4.456;2022-08-01T13:37:07;30.90;88.00
25918;DHT22;13899;51.174;4.456;2022-08-01T13:39:33;31.20;88.00
25918;DHT22;13899;51.174;4.456;2022-08-01T13:42:09;31.40;87.50
25918;DHT22;13899;51.174;4.456;2022-08-01T13:44:36;31.40;86.30
25918;DHT22;13899;51.174;4.456;2022-08-01T13:47:05;31.20;86.30
25918;DHT22;13899;51.174;4.456;2022-08-01T13:49:32;31.30;86.70
25918;DHT22;13899;51.174;4.456;2022-08-01T13:51:58;31.80;85.10
25918;DHT22;13899;51.174;4.456;2022-08-01T13:54:24;32.20;82.40
25918;DHT22;13899;51.174;4.456;2022-08-01T13:56:51;33.40;81.30
25918;DHT22;13899;51.174;4.456;2022-08-01T13:59:19;34.90;76.50
25918;DHT22;13899;51.174;4.456;2022-08-01T14:01:47;35.70;72.50
25918;DHT22;13899;51.174;4.456;2022-08-01T14:04:13;35.80;67.20
25918;DHT22;13899;51.174;4.456;2022-08-01T14:06:39;36.00;67.50
25918;DHT22;13899;51.174;4.456;2022-08-01T14:09:06;36.10;66.30
25918;DHT22;13899;51.174;4.456;2022-08-01T14:11:34;36.70;63.70
25918;DHT22;13899;51.174;4.456;2022-08-01T14:14:01;36.50;61.80
25918;DHT22;13899;51.174;4.456;2022-08-01T14:16:26;37.20;59.80
25918;DHT22;13899;51.174;4.456;2022-08-01T14:18:52;37.80;58.70
25918;DHT22;13899;51.174;4.456;2022-08-01T14:21:17;37.80;57.00
25918;DHT22;13899;51.174;4.456;2022-08-01T14:23:45;37.70;57.60
25918;DHT22;13899;51.174;4.456;2022-08-01T14:26:11;37.90;55.40
25918;DHT22;13899;51.174;4.456;2022-08-01T14:28:37;38.20;54.10
25918;DHT22;13899;51.174;4.456;2022-08-01T14:31:03;38.50;53.50
25918;DHT22;13899;51.174;4.456;2022-08-01T14:33:31;38.80;52.70
25918;DHT22;13899;51.174;4.456;2022-08-01T14:35:57;39.10;52.00
25918;DHT22;13899;51.174;4.456;2022-08-01T14:38:24;38.90;51.20
25918;DHT22;13899;51.174;4.456;2022-08-01T14:40:50;39.00;50.50
25918;DHT22;13899;51.174;4.456;2022-08-01T14:43:19;40.40;50.00
25918;DHT22;13899;51.174;4.456;2022-08-01T14:45:45;41.00;48.50
25918;DHT22;13899;51.174;4.456;2022-08-01T14:48:16;40.90;47.10
25918;DHT22;13899;51.174;4.456;2022-08-01T14:50:42;41.30;46.10
25918;DHT22;13899;51.174;4.456;2022-08-01T14:53:13;40.80;45.60
25918;DHT22;13899;51.174;4.456;2022-08-01T14:55:39;40.60;46.60
25918;DHT22;13899;51.174;4.456;2022-08-01T14:58:04;39.90;46.00
25918;DHT22;13899;51.174;4.456;2022-08-01T15:00:30;38.30;45.90
25918;DHT22;13899;51.174;4.456;2022-08-01T15:02:56;36.30;47.90
25918;DHT22;13899;51.174;4.456;2022-08-01T15:05:21;34.60;50.00
25918;DHT22;13899;51.174;4.456;2022-08-01T15:07:47;33.70;50.00
25918;DHT22;13899;51.174;4.456;2022-08-01T15:10:13;33.20;51.30
25918;DHT22;13899;51.174;4.456;2022-08-01T15:12:39;32.50;51.50
25918;DHT22;13899;51.174;4.456;2022-08-01T15:15:05;32.00;52.90
25918;DHT22;13899;51.174;4.456;2022-08-01T15:17:31;31.70;52.50
25918;DHT22;13899;51.174;4.456;2022-08-01T15:19:59;31.60;53.30
25918;DHT22;13899;51.174;4.456;2022-08-01T15:22:25;31.10;53.70
25918;DHT22;13899;51.174;4.456;2022-08-01T15:24:52;30.50;54.60
25918;DHT22;13899;51.174;4.456;2022-08-01T15:27:19;30.40;54.90
25918;DHT22;13899;51.174;4.456;2022-08-01T15:29:46;30.20;54.70
25918;DHT22;13899;51.174;4.456;2022-08-01T15:32:12;29.90;55.40
25918;DHT22;13899;51.174;4.456;2022-08-01T15:34:38;30.10;55.50
25918;DHT22;13899;51.174;4.456;2022-08-01T15:37:06;30.10;56.10
25918;DHT22;13899;51.174;4.456;2022-08-01T15:39:34;30.10;56.70
25918;DHT22;13899;51.174;4.456;2022-08-01T15:42:04;29.90;57.30
25918;DHT22;13899;51.174;4.456;2022-08-01T15:44:30;30.10;58.00
25918;DHT22;13899;51.174;4.456;2022-08-01T15:47:14;30.10;58.20
25918;DHT22;13899;51.174;4.456;2022-08-01T15:49:49;29.80;58.30
25918;DHT22;13899;51.174;4.456;2022-08-01T15:52:14;29.40;61.20
25918;DHT22;13899;51.174;4.456;2022-08-01T15:55:07;29.10;61.10
25918;DHT22;13899;51.174;4.456;2022-08-01T15:57:33;29.40;60.30
25918;DHT22;13899;51.174;4.456;2022-08-01T15:59:59;29.70;60.20
25918;DHT22;13899;51.174;4.456;2022-08-01T16:02:24;29.70;61.10
25918;DHT22;13899;51.174;4.456;2022-08-01T16:04:50;29.50;59.80
25918;DHT22;13899;51.174;4.456;2022-08-01T16:07:16;29.40;59.70
25918;DHT22;13899;51.174;4.456;2022-08-01T16:09:41;29.60;60.60
25918;DHT22;13899;51.174;4.456;2022-08-01T16:12:07;29.50;61.90
25918;DHT22;13899;51.174;4.456;2022-08-01T16:14:34;29.40;61.60
25918;DHT22;13899;51.174;4.456;2022-08-01T16:17:00;29.50;61.30
25918;DHT22;13899;51.174;4.456;2022-08-01T16:19:25;29.50;61.60
25918;DHT22;13899;51.174;4.456;2022-08-01T16:21:51;29.60;60.70
25918;DHT22;13899;51.174;4.456;2022-08-01T16:24:17;29.60;61.30
25918;DHT22;13899;51.174;4.456;2022-08-01T16:26:42;29.70;62.00
25918;DHT22;13899;51.174;4.456;2022-08-01T16:29:08;29.50;61.20